createdAt,value
2016-08-08T20:12:06.371Z,44.67
2016-08-08T20:12:32.275Z,44.77
2016-08-08T20:12:57.839Z,44.12
2016-08-08T20:13:23.523Z,45.37
2016-08-08T20:14:05.640Z,43.65
2016-08-08T20:14:31.202Z,41.82
2016-08-08T20:14:56.757Z,41.91
2016-08-08T20:15:22.582Z,42.03
2016-08-08T20:15:48.148Z,41.83
2016-08-08T20:16:13.748Z,41.83
2016-08-08T20:16:39.338Z,42.03
2016-08-08T20:17:04.900Z,42.03
2016-08-08T20:17:30.557Z,42.03
2016-08-08T20:17:56.149Z,42.13
2016-08-08T20:18:21.706Z,41.83
2016-08-08T20:18:47.272Z,42.03
2016-08-08T20:19:12.847Z,41.83
2016-08-08T20:19:38.410Z,41.74
2016-08-08T20:20:03.977Z,41.93
2016-08-08T20:20:29.591Z,41.74
2016-08-08T20:20:55.195Z,41.95
2016-08-08T20:21:20.752Z,41.86
2016-08-08T20:21:46.339Z,41.56
2016-08-08T20:22:11.902Z,41.27
2016-08-08T20:22:37.493Z,40.31
2016-08-08T20:23:03.075Z,40.42
2016-08-08T20:23:28.644Z,40.42
2016-08-08T20:23:54.201Z,40.42
2016-08-08T20:24:19.887Z,39.94
2016-08-08T20:24:45.427Z,39.94
2016-08-08T20:25:10.969Z,39.94
2016-08-08T20:25:36.522Z,40.33
2016-08-08T20:26:02.073Z,40.33
2016-08-08T20:26:27.632Z,40.42
2016-08-08T20:26:53.168Z,40.81
2016-08-08T20:27:18.763Z,41.1
2016-08-08T20:28:04.256Z,41.49
2016-08-08T20:28:29.832Z,41.49
2016-08-08T20:28:55.386Z,41.58
2016-08-08T20:29:20.952Z,41.2
2016-08-08T20:29:46.547Z,41.78
2016-08-08T20:30:12.138Z,41.78
2016-08-08T20:30:37.699Z,41.68
2016-08-08T20:31:28.828Z,41.2
2016-08-08T20:31:54.423Z,41.39
2016-08-08T20:32:20.000Z,41.58
2016-08-08T20:32:45.581Z,41.1
2016-08-08T20:33:11.159Z,41.2
2016-08-08T20:33:36.756Z,41.49
2016-08-08T20:34:02.417Z,41.3
2016-08-08T20:34:27.999Z,41.3
2016-08-08T20:34:53.558Z,41.3
2016-08-08T20:35:19.115Z,41.39
2016-08-08T20:36:04.585Z,40.81
2016-08-08T20:36:30.120Z,40.64
2016-08-08T20:36:55.662Z,40.64
2016-08-08T20:37:21.185Z,40.42
2016-08-08T20:37:46.776Z,40.73
2016-08-08T20:38:12.325Z,40.71
2016-08-08T20:38:37.958Z,40.42
2016-08-08T20:39:03.599Z,40.64
2016-08-08T20:39:29.182Z,40.64
2016-08-08T20:39:54.751Z,40.64
2016-08-08T20:40:20.332Z,40.44
2016-08-08T20:40:45.903Z,40.73
2016-08-08T20:41:11.481Z,40.64
2016-08-08T20:41:37.039Z,40.73
2016-08-08T20:42:02.596Z,40.73
2016-08-08T20:42:28.169Z,40.73
2016-08-08T20:42:53.717Z,40.73
2016-08-08T20:43:19.287Z,40.54
2016-08-08T20:43:44.835Z,40.73
2016-08-08T20:44:10.391Z,40.73
2016-08-08T20:44:36.067Z,40.64
2016-08-08T20:45:01.623Z,40.64
2016-08-08T20:45:27.169Z,40.73
2016-08-08T20:45:52.732Z,40.83
2016-08-08T20:46:18.269Z,41.22
2016-08-08T20:46:43.842Z,41.02
2016-08-08T20:47:09.410Z,40.92
2016-08-08T20:47:34.994Z,40.73
2016-08-08T20:48:00.574Z,40.54
2016-08-08T20:48:26.149Z,40.64
2016-08-08T20:48:51.831Z,40.83
2016-08-08T20:49:17.384Z,40.73
2016-08-08T20:49:42.994Z,41.02
2016-08-08T20:50:08.554Z,41.12
2016-08-08T20:50:34.097Z,41.12
2016-08-08T20:50:59.660Z,41.12
2016-08-08T20:51:25.243Z,40.83
2016-08-08T20:51:50.834Z,40.73
2016-08-08T20:52:16.388Z,41.22
2016-08-08T20:52:41.950Z,40.44
2016-08-08T20:53:07.609Z,40.44
2016-08-08T20:53:33.179Z,40.83
2016-08-08T20:53:58.742Z,40.73
2016-08-08T20:54:24.329Z,40.83
2016-08-08T20:54:49.901Z,40.92
2016-08-08T20:55:15.477Z,41.22
2016-08-08T20:55:41.056Z,41.12
2016-08-08T20:56:06.601Z,41.12
2016-08-08T20:56:32.147Z,40.92
2016-08-08T20:56:57.738Z,40.54
2016-08-08T20:57:23.314Z,40.44
2016-08-08T20:57:48.887Z,40.33
2016-08-08T20:58:14.447Z,41.2
2016-08-08T20:58:39.998Z,41.1
2016-08-08T20:59:05.562Z,41
2016-08-08T20:59:31.166Z,41.68
2016-08-08T20:59:56.750Z,41.68
2016-08-08T21:00:22.300Z,41.49
2016-08-08T21:00:47.864Z,41.49
2016-08-08T21:01:38.962Z,41.39
2016-08-08T21:39:50.914Z,43.99
2016-08-08T21:40:16.482Z,43.89
2016-08-08T21:40:42.044Z,43.99
2016-08-08T21:41:07.591Z,43.89
2016-08-08T21:41:33.240Z,43.7
2016-08-08T21:41:58.728Z,43.89
2016-08-08T21:42:24.306Z,43.6
2016-08-08T21:42:49.909Z,43.5
2016-08-08T21:43:15.489Z,43.41
2016-08-08T21:43:41.053Z,43.6
2016-08-08T21:44:06.635Z,43.6
2016-08-08T21:44:32.216Z,43.6
2016-08-08T21:44:57.768Z,43.21
2016-08-08T21:45:23.395Z,43.31
2016-08-08T21:45:48.957Z,43.89
2016-08-08T21:46:14.501Z,43.21
2016-08-08T21:46:40.080Z,43.21
2016-08-08T21:47:05.661Z,42.72
2016-08-08T21:47:31.228Z,42.63
2016-08-08T21:47:56.792Z,42.82
2016-08-08T21:48:22.382Z,42.82
2016-08-08T21:48:48.016Z,42.63
2016-08-08T21:49:13.581Z,42.55
2016-08-08T21:49:39.209Z,42.34
2016-08-08T21:50:04.760Z,42.36
2016-08-08T21:51:15.859Z,42.85
2016-08-08T21:51:41.408Z,42.26
2016-08-08T21:52:06.970Z,42.07
2016-08-08T21:52:32.549Z,42.07
2016-08-08T21:52:58.093Z,42.26
2016-08-08T21:53:23.658Z,42.07
2016-08-08T21:53:49.213Z,42.17
2016-08-08T21:54:14.765Z,41.97
2016-08-08T21:54:40.327Z,42.36
2016-08-08T21:55:05.996Z,42.17
2016-08-08T21:55:31.558Z,42.07
2016-08-08T21:55:57.118Z,42.26
2016-08-08T21:56:22.751Z,42.17
2016-08-08T21:56:48.341Z,42.17
2016-08-08T21:57:13.910Z,42.26
2016-08-08T21:57:39.462Z,42.07
2016-08-08T21:58:05.005Z,41.78
2016-08-08T21:58:30.583Z,41.88
2016-08-08T21:58:56.151Z,42.07
2016-08-08T21:59:21.718Z,42.07
2016-08-08T21:59:47.291Z,41.97
2016-08-08T22:00:12.874Z,41.78
2016-08-08T22:00:38.480Z,41.78
2016-08-08T22:01:04.049Z,41.88
2016-08-08T22:01:29.595Z,41.78
2016-08-08T22:01:55.234Z,41.58
2016-08-08T22:02:20.809Z,41.78
2016-08-08T22:02:46.381Z,41.68
2016-08-08T22:03:11.939Z,41.88
2016-08-08T22:03:37.503Z,41.68
2016-08-08T22:04:03.084Z,41.78
2016-08-08T22:04:28.656Z,41.68
2016-08-08T22:04:54.261Z,41.78
2016-08-08T22:05:19.824Z,41.88
2016-08-08T22:05:45.717Z,41.88
2016-08-08T22:06:11.006Z,41.68
2016-08-08T22:06:36.625Z,41.88
2016-08-08T22:07:02.172Z,41.39
2016-08-08T22:07:27.725Z,41.68
2016-08-08T22:07:53.325Z,41.58
2016-08-08T22:08:18.902Z,41.88
2016-08-08T22:08:44.459Z,41.58
2016-08-08T22:09:10.112Z,41.58
2016-08-08T22:09:35.683Z,41.58
2016-08-08T22:10:01.243Z,41.41
2016-08-08T22:10:26.803Z,41.3
2016-08-08T22:10:52.382Z,41.58
2016-08-08T22:11:17.954Z,41.31
2016-08-08T22:11:43.700Z,41.41
2016-08-08T22:12:09.283Z,41.49
2016-08-08T22:12:34.858Z,41.78
2016-08-08T22:13:00.441Z,41.68
2016-08-08T22:13:26.007Z,41.68
2016-08-08T22:13:51.600Z,41.49
2016-08-08T22:14:17.162Z,41.58
2016-08-08T22:14:42.743Z,41.58
2016-08-08T22:15:08.323Z,41.39
2016-08-08T22:15:33.883Z,41.58
2016-08-08T22:15:59.472Z,41.58
2016-08-08T22:16:50.598Z,41.49
2016-08-08T22:17:16.151Z,41.3
2016-08-08T22:17:41.728Z,41.3
2016-08-08T22:18:07.293Z,41.1
2016-08-08T22:18:32.854Z,41.2
2016-08-08T22:18:58.412Z,41.39
2016-08-08T22:19:24.004Z,41.31
2016-08-08T22:19:49.580Z,41.2
2016-08-08T22:20:15.186Z,41.3
2016-08-08T22:20:40.742Z,41.3
2016-08-08T22:21:06.297Z,41.39
2016-08-08T22:21:31.861Z,41.3
2016-08-08T22:21:57.427Z,41.58
2016-08-08T22:22:23.011Z,41.68
2016-08-08T22:22:48.584Z,41.49
2016-08-08T22:23:14.280Z,41.58
2016-08-08T22:23:39.846Z,41.39
2016-08-08T22:24:05.422Z,41.49
2016-08-08T22:24:31.012Z,41.68
2016-08-08T22:24:56.584Z,41.49
2016-08-08T22:25:22.164Z,41.49
2016-08-08T22:25:47.724Z,41.58
2016-08-08T22:26:13.323Z,41.49
2016-08-08T22:26:38.885Z,41.39
2016-08-08T22:27:04.463Z,40.92
2016-08-08T22:27:30.024Z,41.39
2016-08-08T22:27:55.621Z,41.2
2016-08-08T22:28:21.195Z,41.2
2016-08-08T22:28:46.750Z,41.39
2016-08-08T22:29:12.378Z,41.41
2016-08-08T22:29:37.996Z,40.92
2016-08-08T22:30:03.617Z,41.1
2016-08-08T22:30:29.182Z,41.22
2016-08-08T22:30:54.805Z,41.39
2016-08-08T22:31:20.405Z,41.1
2016-08-08T22:31:45.961Z,41.2
